Harbour Point, Puerto Rico
Current Conditions -  °F | °C
As of 9:27 AM on Friday 26 Dec 2014 (Local Time) from TJNR Reporting Station
Broken Clouds Broken Clouds  
Wind Chill: 83°   Ceiling: 4600
Heat Index: 88°   Visibility: 10mi
Dew Point: 71°   Wind: 9mph
Humidity: 67%   Direction: 60°ENE
Pressure: 30.12"   Gusts: NA
Location:  18.1494°N, 65.8294°W
Report Text: TJNR 261327Z AUTO 06008KT 10SM SCT028 SCT035 BKN046 28/22 A3012 RMK AO2 T02830217 $
Loading
Personal Weather Stations






























Interactive Weather Map New forecast layout! Learn more

10-Day Weather Forecast

Advertisements
Track Severe Weather on mobile